Kendrick, Idaho
Current Conditions -  °F | °C
As of 6:56 PM on Saturday 25 Oct 2014 (Local Time) from KLWS Reporting Station
Clear Clear  
Wind Chill: 72°   Ceiling: Unl
Heat Index: 72°   Visibility: 10mi
Dew Point: 35°   Wind: 14mph
Humidity: 26%   Direction: 180°S
Pressure: 29.51"   Gusts: NA
Location:  46.61°N, 116.65°W
Report Text: KLWS 260156Z AUTO 18012KT 10SM CLR 22/02 A2951 RMK AO2 PK WND 20028/0101 SLP988 T02220017
Loading
Personal Weather Stations






























Interactive Weather Map
Tropical Storm Tracking
New forecast layout! Learn more

10-Day Weather Forecast

Advertisements
Track Severe Weather on mobile